Time;durP1;ratioP1;P1;durP2;ratioP2;P2;SDS_P1;SDS_P2;PMS_P1;PMS_P2;Temp;Humidity;BMP_temperature;BMP_pressure;BME280_temperature;BME280_humidity;BME280_pressure;Samples;Min_cycle;Max_cycle;Signal;HPM_P1;HPM_P2
2024/01/24 00:02:01;;;;;;;115.97;10.68;;;;;;;;;;6245686;22;20016;-82
2024/01/24 00:04:28;;;;;;;116.32;10.18;;;;;;;;;;6243590;22;20031;-80
2024/01/24 00:06:55;;;;;;;100.45;10.15;;;;;;;;;;6245660;22;20027;-81
2024/01/24 00:09:21;;;;;;;101.60;10.98;;;;;;;;;;6244821;22;20464;-80
2024/01/24 00:11:48;;;;;;;93.53;10.82;;;;;;;;;;6246056;23;20372;-80
2024/01/24 00:14:15;;;;;;;106.82;12.60;;;;;;;;;;6245811;22;20016;-80
2024/01/24 00:16:41;;;;;;;125.75;11.38;;;;;;;;;;6245368;22;20020;-81
2024/01/24 00:19:08;;;;;;;105.07;11.05;;;;;;;;;;6245782;22;20016;-80
2024/01/24 00:21:37;;;;;;;97.88;11.02;;;;;;;;;;6246145;22;20046;-80
2024/01/24 00:24:04;;;;;;;83.88;10.30;;;;;;;;;;6245501;22;20027;-81
2024/01/24 00:26:30;;;;;;;83.65;11.38;;;;;;;;;;6246109;22;20099;-81
2024/01/24 00:28:57;;;;;;;76.93;9.15;;;;;;;;;;6247467;22;20021;-80
2024/01/24 00:31:24;;;;;;;76.43;9.00;;;;;;;;;;6246763;22;20028;-81
2024/01/24 00:33:52;;;;;;;86.70;9.40;;;;;;;;;;6247514;22;20441;-80
2024/01/24 00:36:19;;;;;;;;;;;;;;;;;;6246564;22;20023;-80
2024/01/24 00:38:46;;;;;;;81.90;8.45;;;;;;;;;;6247497;22;19915;-79
2024/01/24 00:41:13;;;;;;;73.60;9.65;;;;;;;;;;6247689;22;20421;-79
2024/01/24 00:43:41;;;;;;;100.32;9.38;;;;;;;;;;6248671;22;20018;-81
2024/01/24 00:46:08;;;;;;;101.82;9.93;;;;;;;;;;6247567;22;20376;-81
2024/01/24 00:48:35;;;;;;;98.63;11.15;;;;;;;;;;6246043;22;20038;-81
2024/01/24 00:51:03;;;;;;;103.25;11.13;;;;;;;;;;6245521;22;20012;-81
2024/01/24 00:53:33;;;;;;;106.95;11.68;;;;;;;;;;6243971;22;20016;-81
2024/01/24 00:56:00;;;;;;;120.78;13.15;;;;;;;;;;6246062;22;20022;-80
2024/01/24 00:58:27;;;;;;;122.55;12.05;;;;;;;;;;6244876;22;20032;-81
2024/01/24 01:00:53;;;;;;;101.35;10.98;;;;;;;;;;6245576;22;20013;-81
2024/01/24 01:03:21;;;;;;;100.18;10.65;;;;;;;;;;6244875;22;20023;-81
2024/01/24 01:05:47;;;;;;;113.80;13.30;;;;;;;;;;6245543;22;20020;-79
2024/01/24 01:08:14;;;;;;;94.38;10.90;;;;;;;;;;6243718;22;20083;-79
2024/01/24 01:10:41;;;;;;;109.90;11.05;;;;;;;;;;6245468;22;20437;-79
2024/01/24 01:13:08;;;;;;;107.38;10.50;;;;;;;;;;6245293;22;20091;-80
2024/01/24 01:15:34;;;;;;;119.68;10.93;;;;;;;;;;6245343;22;20070;-81
2024/01/24 01:18:01;;;;;;;84.93;10.90;;;;;;;;;;6245358;22;20031;-80
2024/01/24 01:20:28;;;;;;;82.45;9.52;;;;;;;;;;6244660;22;20020;-80
2024/01/24 01:22:55;;;;;;;107.65;10.10;;;;;;;;;;6243919;23;20020;-80
2024/01/24 01:25:21;;;;;;;96.75;10.45;;;;;;;;;;6268395;22;20582;-80
2024/01/24 01:27:48;;;;;;;98.78;10.43;;;;;;;;;;6245140;22;20463;-81
2024/01/24 01:30:15;;;;;;;108.88;11.20;;;;;;;;;;6245080;22;20022;-80
2024/01/24 01:32:43;;;;;;;111.70;11.65;;;;;;;;;;6245448;22;20225;-80
2024/01/24 01:35:10;;;;;;;103.50;10.50;;;;;;;;;;6245040;22;20016;-80
2024/01/24 01:37:38;;;;;;;111.80;10.85;;;;;;;;;;6244926;22;20050;-79
2024/01/24 01:40:06;;;;;;;81.72;8.82;;;;;;;;;;6245862;22;20081;-80
2024/01/24 01:42:33;;;;;;;71.75;8.50;;;;;;;;;;6244884;22;20031;-80
2024/01/24 01:45:00;;;;;;;97.95;9.70;;;;;;;;;;6245152;22;20016;-80
2024/01/24 01:47:27;;;;;;;88.57;10.18;;;;;;;;;;6244567;22;20493;-80
2024/01/24 01:49:53;;;;;;;96.72;10.35;;;;;;;;;;6245433;22;20016;-80
2024/01/24 01:52:22;;;;;;;90.57;9.55;;;;;;;;;;6244529;22;20471;-80
2024/01/24 01:54:50;;;;;;;74.13;8.82;;;;;;;;;;6245364;22;20103;-80
2024/01/24 01:57:17;;;;;;;65.80;7.72;;;;;;;;;;6244435;22;20353;-81
2024/01/24 01:59:44;;;;;;;75.05;7.38;;;;;;;;;;6244713;22;20271;-81
2024/01/24 02:02:11;;;;;;;62.92;6.68;;;;;;;;;;6244735;22;20070;-81
2024/01/24 02:04:38;;;;;;;68.00;7.60;;;;;;;;;;6245058;23;20642;-79
2024/01/24 02:07:05;;;;;;;66.13;6.90;;;;;;;;;;6246117;22;20040;-79
2024/01/24 02:09:32;;;;;;;56.75;7.22;;;;;;;;;;6246647;22;20020;-79
2024/01/24 02:11:58;;;;;;;49.90;6.57;;;;;;;;;;6246544;22;20016;-80
2024/01/24 02:14:25;;;;;;;64.70;7.82;;;;;;;;;;6245987;22;20020;-81
2024/01/24 02:16:52;;;;;;;63.40;7.07;;;;;;;;;;6246444;22;20310;-80
2024/01/24 02:19:18;;;;;;;61.88;8.05;;;;;;;;;;6245929;22;20023;-81
2024/01/24 02:21:46;;;;;;;83.90;8.60;;;;;;;;;;6246312;22;20127;-80
2024/01/24 02:24:13;;;;;;;59.13;6.65;;;;;;;;;;6269746;22;20078;-80
2024/01/24 02:26:39;;;;;;;61.05;7.70;;;;;;;;;;6246437;22;20020;-80
2024/01/24 02:29:06;;;;;;;53.83;7.18;;;;;;;;;;6245948;22;20028;-81
2024/01/24 02:31:33;;;;;;;43.95;6.20;;;;;;;;;;6246354;22;20314;-81
2024/01/24 02:34:00;;;;;;;41.30;5.80;;;;;;;;;;6246403;22;20326;-80
2024/01/24 02:36:26;;;;;;;43.65;5.68;;;;;;;;;;6245898;22;20028;-80
2024/01/24 02:38:53;;;;;;;52.58;6.95;;;;;;;;;;6246239;22;20346;-79
2024/01/24 02:41:24;;;;;;;46.55;6.88;;;;;;;;;;6245639;22;20020;-81
2024/01/24 02:43:51;;;;;;;50.00;6.85;;;;;;;;;;6244656;23;20024;-81
2024/01/24 02:46:17;;;;;;;57.47;6.45;;;;;;;;;;6246634;22;20023;-80
2024/01/24 02:48:44;;;;;;;49.45;6.72;;;;;;;;;;6246278;22;20024;-79
2024/01/24 02:51:11;;;;;;;51.35;6.70;;;;;;;;;;6268529;22;20012;-80
2024/01/24 02:53:38;;;;;;;70.10;7.15;;;;;;;;;;6245792;22;20479;-79
2024/01/24 02:56:05;;;;;;;53.85;7.03;;;;;;;;;;6246190;22;20027;-80
2024/01/24 02:58:32;;;;;;;55.33;6.68;;;;;;;;;;6245953;22;20012;-80
2024/01/24 03:00:58;;;;;;;44.55;6.35;;;;;;;;;;6246098;22;20336;-80
2024/01/24 03:03:26;;;;;;;39.80;5.38;;;;;;;;;;6245722;22;20020;-79
2024/01/24 03:05:53;;;;;;;42.90;5.63;;;;;;;;;;6246216;22;20417;-81
2024/01/24 03:08:20;;;;;;;34.65;5.03;;;;;;;;;;6245552;22;20095;-80
2024/01/24 03:10:47;;;;;;;29.77;4.72;;;;;;;;;;6269797;22;20433;-81
2024/01/24 03:13:13;;;;;;;29.20;4.47;;;;;;;;;;6243965;22;20020;-81
2024/01/24 03:15:40;;;;;;;22.75;3.60;;;;;;;;;;6246128;22;20020;-80
2024/01/24 03:18:07;;;;;;;21.20;3.47;;;;;;;;;;6245473;22;20090;-80
2024/01/24 03:20:36;;;;;;;30.90;4.07;;;;;;;;;;6246033;22;20020;-80
2024/01/24 03:23:03;;;;;;;26.40;3.95;;;;;;;;;;6246075;22;20016;-80
2024/01/24 03:25:31;;;;;;;27.35;4.20;;;;;;;;;;6245552;22;20078;-79
2024/01/24 03:27:58;;;;;;;22.88;3.67;;;;;;;;;;6245782;22;20500;-81
2024/01/24 03:30:24;;;;;;;22.83;3.83;;;;;;;;;;6245251;22;20329;-80
2024/01/24 03:32:51;;;;;;;32.95;4.13;;;;;;;;;;6245959;22;20020;-80
2024/01/24 03:35:18;;;;;;;27.33;4.40;;;;;;;;;;6245260;22;20381;-80
2024/01/24 03:37:45;;;;;;;21.90;3.55;;;;;;;;;;6245760;22;20380;-80
2024/01/24 03:40:12;;;;;;;22.42;3.72;;;;;;;;;;6245274;22;20016;-80
2024/01/24 03:42:38;;;;;;;18.10;3.33;;;;;;;;;;6245886;22;20020;-80
2024/01/24 03:45:06;;;;;;;22.13;3.65;;;;;;;;;;6245519;22;20433;-81
2024/01/24 03:47:33;;;;;;;15.18;2.60;;;;;;;;;;6246437;22;20040;-81
2024/01/24 03:49:59;;;;;;;14.30;2.30;;;;;;;;;;6247082;22;20012;-79
2024/01/24 03:52:26;;;;;;;11.38;2.20;;;;;;;;;;6244424;22;20019;-80
2024/01/24 03:54:53;;;;;;;10.95;2.30;;;;;;;;;;6270585;22;20228;-80
2024/01/24 03:57:20;;;;;;;13.90;2.60;;;;;;;;;;6243808;22;20016;-80
2024/01/24 03:59:46;;;;;;;9.60;1.80;;;;;;;;;;6244063;22;20070;-80
2024/01/24 04:02:13;;;;;;;16.40;2.00;;;;;;;;;;6243409;22;20086;-80
2024/01/24 04:04:40;;;;;;;23.33;3.20;;;;;;;;;;6243810;22;20456;-79
2024/01/24 04:07:07;;;;;;;26.60;4.45;;;;;;;;;;6245075;22;20008;-79
2024/01/24 04:09:34;;;;;;;47.75;5.32;;;;;;;;;;6245657;22;20017;-80
2024/01/24 04:12:00;;;;;;;27.60;4.75;;;;;;;;;;6245688;22;20016;-79
2024/01/24 04:14:27;;;;;;;24.58;4.13;;;;;;;;;;6245007;22;20028;-80
2024/01/24 04:16:54;;;;;;;23.33;3.80;;;;;;;;;;6246098;22;20021;-79
2024/01/24 04:19:21;;;;;;;29.17;4.00;;;;;;;;;;6246003;22;20091;-79
2024/01/24 04:21:47;;;;;;;19.15;3.38;;;;;;;;;;6246204;22;20366;-79
2024/01/24 04:24:15;;;;;;;22.85;2.97;;;;;;;;;;6245091;22;20047;-80
2024/01/24 04:26:42;;;;;;;17.60;2.80;;;;;;;;;;6269265;22;20074;-79
2024/01/24 04:29:09;;;;;;;23.95;3.03;;;;;;;;;;6243526;22;20036;-80
2024/01/24 04:31:41;;;;;;;30.80;4.15;;;;;;;;;;6245562;22;20027;-79
2024/01/24 04:34:08;;;;;;;27.58;3.88;;;;;;;;;;6245241;22;20062;-79
2024/01/24 04:36:35;;;;;;;30.40;4.22;;;;;;;;;;6245761;22;20030;-81
2024/01/24 04:39:02;;;;;;;40.80;4.72;;;;;;;;;;6245302;22;20020;-80
2024/01/24 04:41:29;;;;;;;38.47;5.00;;;;;;;;;;6245405;22;20032;-81
2024/01/24 04:43:56;;;;;;;42.88;5.82;;;;;;;;;;6245682;22;20070;-80
2024/01/24 04:46:22;;;;;;;37.30;6.03;;;;;;;;;;6244668;22;20016;-81
2024/01/24 04:48:49;;;;;;;33.03;5.40;;;;;;;;;;6245470;22;20023;-80
2024/01/24 04:51:16;;;;;;;40.90;5.82;;;;;;;;;;6244709;22;20090;-81
2024/01/24 04:53:43;;;;;;;44.78;4.68;;;;;;;;;;6245495;22;20091;-80
2024/01/24 04:56:09;;;;;;;37.47;5.20;;;;;;;;;;6244839;22;20028;-80
2024/01/24 04:58:37;;;;;;;43.30;5.10;;;;;;;;;;6245490;22;20012;-81
2024/01/24 05:01:04;;;;;;;37.90;4.45;;;;;;;;;;6243374;22;20328;-79
2024/01/24 05:03:30;;;;;;;44.28;5.95;;;;;;;;;;6245425;22;20329;-79
2024/01/24 05:05:57;;;;;;;38.88;4.82;;;;;;;;;;6245443;22;20022;-80
2024/01/24 05:08:35;;;;;;;43.97;4.88;;;;;;;;;;6245330;22;20104;-79
2024/01/24 05:11:02;;;;;;;37.15;4.90;;;;;;;;;;6245370;22;20022;-79
2024/01/24 05:13:29;;;;;;;36.50;5.45;;;;;;;;;;6246055;22;20020;-80
2024/01/24 05:15:56;;;;;;;46.47;5.90;;;;;;;;;;6247207;22;20012;-80
2024/01/24 05:18:23;;;;;;;42.15;5.28;;;;;;;;;;6246445;22;20024;-80
2024/01/24 05:20:49;;;;;;;41.78;5.50;;;;;;;;;;6247088;22;20445;-80
2024/01/24 05:23:16;;;;;;;39.15;5.05;;;;;;;;;;6246711;22;20074;-80
2024/01/24 05:25:43;;;;;;;25.88;4.60;;;;;;;;;;6246968;22;20035;-80
2024/01/24 05:28:11;;;;;;;25.67;4.07;;;;;;;;;;6270438;22;20024;-80
2024/01/24 05:30:38;;;;;;;40.88;5.22;;;;;;;;;;6247135;22;20016;-79
2024/01/24 05:33:05;;;;;;;35.00;5.03;;;;;;;;;;6245768;23;20311;-80
2024/01/24 05:35:32;;;;;;;33.95;4.72;;;;;;;;;;6247402;22;20449;-79
2024/01/24 05:38:00;;;;;;;39.45;4.72;;;;;;;;;;6246991;22;20027;-85
2024/01/24 05:40:27;;;;;;;36.72;5.25;;;;;;;;;;6269582;22;20028;-80
2024/01/24 05:42:53;;;;;;;29.00;4.20;;;;;;;;;;6247036;22;20024;-80
2024/01/24 05:45:22;;;;;;;39.50;5.43;;;;;;;;;;6246307;22;20430;-80
2024/01/24 05:47:49;;;;;;;18.85;3.88;;;;;;;;;;6246918;22;20016;-82
2024/01/24 05:50:16;;;;;;;37.55;4.15;;;;;;;;;;6246204;22;20019;-82
2024/01/24 05:52:43;;;;;;;32.85;4.18;;;;;;;;;;6245496;22;20020;-81
2024/01/24 05:55:11;;;;;;;31.30;4.03;;;;;;;;;;6246184;22;20012;-81
2024/01/24 05:57:40;;;;;;;28.13;4.07;;;;;;;;;;6246481;22;20039;-81
2024/01/24 06:00:09;;;;;;;29.90;3.90;;;;;;;;;;6245940;22;20026;-80
2024/01/24 06:02:36;;;;;;;28.27;4.30;;;;;;;;;;6246602;22;20016;-79
2024/01/24 06:05:04;;;;;;;28.83;4.05;;;;;;;;;;6246383;22;20017;-80
2024/01/24 06:07:31;;;;;;;39.50;4.55;;;;;;;;;;6246128;22;20024;-79
2024/01/24 06:09:58;;;;;;;36.72;4.97;;;;;;;;;;6246362;22;20027;-79
2024/01/24 06:12:26;;;;;;;34.13;4.05;;;;;;;;;;6245808;22;20103;-80
2024/01/24 06:14:55;;;;;;;26.25;3.30;;;;;;;;;;6246372;22;20019;-79
2024/01/24 06:17:22;;;;;;;35.53;4.80;;;;;;;;;;6245737;22;20016;-81
2024/01/24 06:19:50;;;;;;;38.33;4.18;;;;;;;;;;6245355;22;20349;-81
2024/01/24 06:22:17;;;;;;;36.17;3.78;;;;;;;;;;6245541;22;20020;-80
2024/01/24 06:24:44;;;;;;;30.10;4.00;;;;;;;;;;6246072;22;20468;-81
2024/01/24 06:27:12;;;;;;;37.50;4.13;;;;;;;;;;6245784;22;20036;-80
2024/01/24 06:29:38;;;;;;;34.55;4.38;;;;;;;;;;6246184;22;20015;-79
2024/01/24 06:32:25;;;;;;;37.95;4.38;;;;;;;;;;6245447;22;20388;-80
2024/01/24 06:34:52;;;;;;;25.42;4.15;;;;;;;;;;6245367;22;20388;-81
2024/01/24 06:37:19;;;;;;;24.42;3.50;;;;;;;;;;6243336;22;20016;-80
2024/01/24 06:39:45;;;;;;;37.00;4.18;;;;;;;;;;6243475;22;20090;-80
2024/01/24 06:42:12;;;;;;;33.60;3.55;;;;;;;;;;6243341;22;20020;-80
2024/01/24 06:44:39;;;;;;;32.15;3.65;;;;;;;;;;6243740;22;20024;-80
2024/01/24 06:47:06;;;;;;;27.55;3.83;;;;;;;;;;6242939;22;20020;-79
2024/01/24 06:49:33;;;;;;;26.20;3.38;;;;;;;;;;6244067;22;20016;-79
2024/01/24 06:52:00;;;;;;;37.30;7.97;;;;;;;;;;6246482;22;20012;-79
2024/01/24 06:54:27;;;;;;;35.65;5.50;;;;;;;;;;6245364;22;20034;-80
2024/01/24 06:56:54;;;;;;;34.30;4.30;;;;;;;;;;6246228;22;20019;-80
2024/01/24 06:59:20;;;;;;;26.52;4.07;;;;;;;;;;6244060;22;20549;-79
2024/01/24 07:01:47;;;;;;;25.40;3.17;;;;;;;;;;6246273;22;20062;-80
2024/01/24 07:04:14;;;;;;;39.28;4.30;;;;;;;;;;6245541;22;20016;-81
2024/01/24 07:06:41;;;;;;;31.23;4.85;;;;;;;;;;6244698;23;20095;-79
2024/01/24 07:09:08;;;;;;;32.03;3.60;;;;;;;;;;6245781;22;20020;-80
2024/01/24 07:11:37;;;;;;;29.55;3.97;;;;;;;;;;6244554;22;20019;-80
2024/01/24 07:14:05;;;;;;;31.45;3.88;;;;;;;;;;6243896;22;20020;-79
2024/01/24 07:16:31;;;;;;;36.58;4.18;;;;;;;;;;6245790;22;20049;-80
2024/01/24 07:18:58;;;;;;;34.10;4.22;;;;;;;;;;6245515;22;20449;-79
2024/01/24 07:21:25;;;;;;;42.90;5.20;;;;;;;;;;6245147;22;20477;-79
2024/01/24 07:23:52;;;;;;;36.35;4.30;;;;;;;;;;6245585;22;20020;-79
2024/01/24 07:26:18;;;;;;;33.00;4.78;;;;;;;;;;6245379;22;20023;-80
2024/01/24 07:28:45;;;;;;;37.88;4.88;;;;;;;;;;6245895;22;20020;-78
2024/01/24 07:31:12;;;;;;;47.53;5.78;;;;;;;;;;6269059;22;20299;-81
2024/01/24 07:33:40;;;;;;;50.42;4.78;;;;;;;;;;6245756;22;20325;-79
2024/01/24 07:36:07;;;;;;;;;;;;;;;;;;6245659;22;20083;-80
2024/01/24 07:38:34;;;;;;;31.42;4.15;;;;;;;;;;6245747;22;20213;-79
2024/01/24 07:41:00;;;;;;;43.85;5.07;;;;;;;;;;6245635;22;20688;-80
2024/01/24 07:43:29;;;;;;;34.88;4.85;;;;;;;;;;6245316;22;20464;-81
2024/01/24 07:45:56;;;;;;;33.53;4.28;;;;;;;;;;6245629;22;20023;-79
2024/01/24 07:48:23;;;;;;;46.50;4.32;;;;;;;;;;6245245;22;20992;-80
2024/01/24 07:50:50;;;;;;;36.00;3.63;;;;;;;;;;6245666;22;20059;-78
2024/01/24 07:53:17;;;;;;;39.47;4.65;;;;;;;;;;6244850;22;20012;-80
2024/01/24 07:55:44;;;;;;;30.58;3.70;;;;;;;;;;6245596;22;20016;-79
2024/01/24 07:58:24;;;;;;;33.10;3.65;;;;;;;;;;6244763;22;20013;-81
2024/01/24 08:00:51;;;;;;;38.17;3.95;;;;;;;;;;6243754;22;20096;-81
2024/01/24 08:03:19;;;;;;;34.30;3.63;;;;;;;;;;6244235;22;20432;-78
2024/01/24 08:05:46;;;;;;;40.83;5.10;;;;;;;;;;6244377;22;20028;-79
2024/01/24 08:08:14;;;;;;;29.60;4.03;;;;;;;;;;6243201;22;20086;-80
2024/01/24 08:10:41;;;;;;;34.33;4.50;;;;;;;;;;6243906;22;20024;-79
2024/01/24 08:13:09;;;;;;;30.20;4.22;;;;;;;;;;6266804;22;20013;-79
2024/01/24 08:15:36;;;;;;;31.35;3.95;;;;;;;;;;6242423;22;20103;-78
2024/01/24 08:18:03;;;;;;;36.33;4.35;;;;;;;;;;6245660;22;20020;-80
2024/01/24 08:20:29;;;;;;;33.83;4.35;;;;;;;;;;6243390;22;20016;-80
2024/01/24 08:22:56;;;;;;;36.25;4.13;;;;;;;;;;6245104;22;20044;-80
2024/01/24 08:25:23;;;;;;;30.15;4.68;;;;;;;;;;6243536;22;20103;-79
2024/01/24 08:27:51;;;;;;;23.45;3.83;;;;;;;;;;6245506;22;20020;-80
2024/01/24 08:30:18;;;;;;;32.53;4.27;;;;;;;;;;6245035;22;20445;-79
2024/01/24 08:32:45;;;;;;;37.10;4.40;;;;;;;;;;6245575;22;20021;-79
2024/01/24 08:35:13;;;;;;;42.92;5.53;;;;;;;;;;6244809;22;20019;-79
2024/01/24 08:37:39;;;;;;;38.58;3.90;;;;;;;;;;6245464;22;20020;-80
2024/01/24 08:40:08;;;;;;;36.65;4.60;;;;;;;;;;6244706;22;20018;-79
2024/01/24 08:42:36;;;;;;;30.83;4.20;;;;;;;;;;6245556;22;20099;-81
2024/01/24 08:45:03;;;;;;;28.42;4.93;;;;;;;;;;6245143;22;20503;-80
2024/01/24 08:47:30;;;;;;;37.83;4.40;;;;;;;;;;6245433;22;20019;-78
2024/01/24 08:49:57;;;;;;;28.25;5.00;;;;;;;;;;6247451;22;20016;-79
2024/01/24 08:52:25;;;;;;;34.83;4.95;;;;;;;;;;6247543;22;20104;-78
2024/01/24 08:54:52;;;;;;;29.60;5.53;;;;;;;;;;6248037;22;20040;-79
2024/01/24 08:57:19;;;;;;;32.10;4.85;;;;;;;;;;6247398;22;20098;-79
2024/01/24 08:59:45;;;;;;;34.72;5.28;;;;;;;;;;6247668;22;20013;-79
2024/01/24 09:02:13;;;;;;;31.42;5.05;;;;;;;;;;6246888;22;20017;-79
2024/01/24 09:04:40;;;;;;;26.95;4.90;;;;;;;;;;6247545;22;20023;-80
2024/01/24 09:07:08;;;;;;;31.60;4.97;;;;;;;;;;6246948;22;20083;-80
2024/01/24 09:09:35;;;;;;;32.30;4.63;;;;;;;;;;6246958;22;20012;-80
2024/01/24 09:12:07;;;;;;;34.20;4.90;;;;;;;;;;6246706;22;20012;-80
2024/01/24 09:14:34;;;;;;;33.17;3.75;;;;;;;;;;6247204;22;20024;-80
2024/01/24 09:17:01;;;;;;;28.42;3.30;;;;;;;;;;6247103;22;20036;-80
2024/01/24 09:19:27;;;;;;;32.97;4.72;;;;;;;;;;6246635;22;20020;-81
2024/01/24 09:21:54;;;;;;;32.85;4.50;;;;;;;;;;6270819;22;20388;-80
2024/01/24 09:24:21;;;;;;;30.50;4.63;;;;;;;;;;6246351;22;20460;-80
2024/01/24 09:26:48;;;;;;;28.40;5.20;;;;;;;;;;6247186;22;20043;-80
2024/01/24 09:29:15;;;;;;;29.98;5.53;;;;;;;;;;6246355;22;20012;-80
2024/01/24 09:31:45;;;;;;;39.83;6.20;;;;;;;;;;6246880;22;20020;-79
2024/01/24 09:34:12;;;;;;;29.73;6.70;;;;;;;;;;6246526;22;20046;-80
2024/01/24 09:36:40;;;;;;;35.65;6.22;;;;;;;;;;6247044;22;20031;-79
2024/01/24 09:39:09;;;;;;;34.33;6.65;;;;;;;;;;6246334;22;20337;-80
2024/01/24 09:41:40;;;;;;;;;;;;;;;;;;6247517;22;20016;-80
2024/01/24 09:44:11;;;;;;;30.38;6.88;;;;;;;;;;6246589;22;19994;-79
2024/01/24 09:46:42;;;;;;;35.13;6.75;;;;;;;;;;6246645;22;20028;-79
2024/01/24 09:49:10;;;;;;;36.95;6.45;;;;;;;;;;6246402;22;20348;-80
2024/01/24 09:51:39;;;;;;;27.60;6.20;;;;;;;;;;6245284;23;20026;-79
2024/01/24 09:54:07;;;;;;;27.13;5.88;;;;;;;;;;6246156;22;20019;-79
2024/01/24 09:56:35;;;;;;;27.88;6.57;;;;;;;;;;6246894;22;20349;-81
2024/01/24 09:59:04;;;;;;;30.95;6.32;;;;;;;;;;6246485;22;20020;-79
2024/01/24 10:01:35;;;;;;;25.80;6.03;;;;;;;;;;6246336;22;20078;-79
2024/01/24 10:04:03;;;;;;;31.60;6.90;;;;;;;;;;6246750;22;20020;-80
2024/01/24 10:06:31;;;;;;;31.90;8.23;;;;;;;;;;6246342;22;20441;-79
2024/01/24 10:08:58;;;;;;;31.80;9.55;;;;;;;;;;6246726;22;20016;-80
2024/01/24 10:11:26;;;;;;;26.27;9.57;;;;;;;;;;6245878;22;20306;-79
2024/01/24 10:13:57;;;;;;;36.25;9.32;;;;;;;;;;6246569;22;20016;-80
2024/01/24 10:16:25;;;;;;;36.30;9.65;;;;;;;;;;6245953;22;20456;-80
2024/01/24 10:18:56;;;;;;;32.60;8.93;;;;;;;;;;6246545;22;20062;-79
2024/01/24 10:21:25;;;;;;;30.98;8.23;;;;;;;;;;6246146;22;20023;-80
2024/01/24 10:23:55;;;;;;;33.15;8.48;;;;;;;;;;6246495;22;20024;-80
2024/01/24 10:26:22;;;;;;;30.25;7.85;;;;;;;;;;6245878;22;20027;-79
2024/01/24 10:28:50;;;;;;;35.00;8.77;;;;;;;;;;6246406;22;20020;-80
2024/01/24 10:31:20;;;;;;;28.33;8.48;;;;;;;;;;6245916;22;20042;-79
2024/01/24 10:33:48;;;;;;;34.10;9.43;;;;;;;;;;6246402;22;20028;-79
2024/01/24 10:36:16;;;;;;;30.05;9.70;;;;;;;;;;6245880;22;20360;-79
2024/01/24 10:38:58;;;;;;;31.60;8.57;;;;;;;;;;6246136;22;20020;-80
2024/01/24 10:41:30;;;;;;;26.85;9.27;;;;;;;;;;6245848;22;20070;-80
2024/01/24 10:44:01;;;;;;;31.27;9.80;;;;;;;;;;6246361;22;20127;-81
2024/01/24 10:46:29;;;;;;;29.08;9.25;;;;;;;;;;6269415;22;20034;-80
2024/01/24 10:48:56;;;;;;;25.48;8.23;;;;;;;;;;6246299;22;20031;-80
2024/01/24 10:51:26;;;;;;;30.38;8.85;;;;;;;;;;6245818;22;20091;-80
2024/01/24 10:53:54;;;;;;;28.65;8.25;;;;;;;;;;6246159;22;20016;-79
2024/01/24 10:56:24;;;;;;;24.80;8.15;;;;;;;;;;6245658;22;20059;-80
2024/01/24 10:58:51;;;;;;;27.25;7.07;;;;;;;;;;6246344;22;20016;-80
2024/01/24 11:01:18;;;;;;;32.00;5.10;;;;;;;;;;6245349;22;20334;-81
2024/01/24 11:03:48;;;;;;;27.65;5.25;;;;;;;;;;6246130;22;20020;-80
2024/01/24 11:06:17;;;;;;;25.52;4.40;;;;;;;;;;6245619;22;20016;-80
2024/01/24 11:09:06;;;;;;;23.27;4.00;;;;;;;;;;6246201;22;20016;-80
2024/01/24 11:11:34;;;;;;;19.05;3.90;;;;;;;;;;6244943;22;20031;-80
2024/01/24 11:14:01;;;;;;;;;;;;;;;;;;6246627;22;20307;-80
2024/01/24 11:16:30;;;;;;;32.00;4.53;;;;;;;;;;6245591;22;19935;-80
2024/01/24 11:18:59;;;;;;;32.88;4.10;;;;;;;;;;6245984;22;20020;-81
2024/01/24 11:21:30;;;;;;;21.83;4.60;;;;;;;;;;6245314;22;20027;-80
2024/01/24 11:23:59;;;;;;;24.42;3.58;;;;;;;;;;6244292;23;20372;-79
2024/01/24 11:26:25;;;;;;;18.80;4.03;;;;;;;;;;6245286;22;20460;-80
2024/01/24 11:29:09;;;;;;;20.50;4.18;;;;;;;;;;6245913;22;20016;-79
2024/01/24 11:31:43;;;;;;;22.77;4.22;;;;;;;;;;6245260;22;20023;-82
2024/01/24 11:34:14;;;;;;;24.92;3.90;;;;;;;;;;6245461;22;20016;-79
2024/01/24 11:36:50;;;;;;;26.02;4.00;;;;;;;;;;6245837;22;20031;-78
2024/01/24 11:39:39;;;;;;;21.40;3.75;;;;;;;;;;6245105;22;20027;-81
2024/01/24 11:42:36;;;;;;;19.67;4.07;;;;;;;;;;6244892;22;20016;-79
2024/01/24 11:45:15;;;;;;;27.05;5.13;;;;;;;;;;6245548;22;20307;-79
2024/01/24 11:47:43;;;;;;;18.92;4.00;;;;;;;;;;6245331;22;20024;-79
2024/01/24 11:50:11;;;;;;;20.65;3.65;;;;;;;;;;6245118;22;20009;-79
2024/01/24 11:52:38;;;;;;;16.40;3.90;;;;;;;;;;6244269;23;20467;-80
2024/01/24 11:55:06;;;;;;;14.80;3.58;;;;;;;;;;6244840;22;20087;-78
2024/01/24 11:57:33;;;;;;;14.02;2.60;;;;;;;;;;6245593;22;20444;-80
2024/01/24 12:00:00;;;;;;;14.10;2.65;;;;;;;;;;6244034;23;20019;-80
2024/01/24 12:02:27;;;;;;;11.95;2.28;;;;;;;;;;6244892;22;20032;-80
2024/01/24 12:04:53;;;;;;;9.02;2.47;;;;;;;;;;6245773;22;20016;-80
2024/01/24 12:07:20;;;;;;;10.20;2.10;;;;;;;;;;6245050;22;20042;-80
2024/01/24 12:09:48;;;;;;;10.02;2.40;;;;;;;;;;6245576;22;20020;-80
2024/01/24 12:12:16;;;;;;;7.40;1.65;;;;;;;;;;6244976;22;20074;-79
2024/01/24 12:14:43;;;;;;;8.77;1.92;;;;;;;;;;6245675;22;20016;-79
2024/01/24 12:17:10;;;;;;;8.43;1.77;;;;;;;;;;6244964;22;20012;-78
2024/01/24 12:19:41;;;;;;;3.75;1.40;;;;;;;;;;6245425;22;20027;-80
2024/01/24 12:22:12;;;;;;;7.65;1.38;;;;;;;;;;6245974;22;20016;-80
2024/01/24 12:24:40;;;;;;;7.13;1.45;;;;;;;;;;6247680;22;20020;-79
2024/01/24 12:27:10;;;;;;;4.05;1.08;;;;;;;;;;6247150;22;20016;-80
2024/01/24 12:29:37;;;;;;;4.53;1.00;;;;;;;;;;6247815;22;20091;-80
2024/01/24 12:32:06;;;;;;;3.72;0.82;;;;;;;;;;6247216;22;20384;-80
2024/01/24 12:34:33;;;;;;;1.98;0.70;;;;;;;;;;6247492;22;20091;-80
2024/01/24 12:37:00;;;;;;;2.03;0.90;;;;;;;;;;6247468;22;20012;-80
2024/01/24 12:39:31;;;;;;;1.95;0.70;;;;;;;;;;6245411;22;20024;-80
2024/01/24 12:42:00;;;;;;;3.35;1.10;;;;;;;;;;6246802;22;20020;-80
2024/01/24 12:44:26;;;;;;;1.92;0.80;;;;;;;;;;6246600;22;20028;-80
2024/01/24 12:46:58;;;;;;;2.03;1.00;;;;;;;;;;6247968;22;20027;-79
2024/01/24 12:49:26;;;;;;;2.88;1.00;;;;;;;;;;6246904;22;20020;-85
2024/01/24 12:51:54;;;;;;;1.77;0.80;;;;;;;;;;6245854;23;20040;-80
2024/01/24 12:54:21;;;;;;;1.50;0.80;;;;;;;;;;6246879;22;20016;-80
2024/01/24 12:56:48;;;;;;;2.80;0.60;;;;;;;;;;6246000;23;20247;-80
2024/01/24 12:59:17;;;;;;;1.58;0.60;;;;;;;;;;6246760;22;20385;-80
2024/01/24 13:01:44;;;;;;;0.80;0.40;;;;;;;;;;6246807;22;20016;-81
2024/01/24 13:04:11;;;;;;;1.48;0.50;;;;;;;;;;6246854;22;20019;-80
2024/01/24 13:06:40;;;;;;;1.55;0.73;;;;;;;;;;6246911;22;20102;-80
2024/01/24 13:09:08;;;;;;;0.98;0.45;;;;;;;;;;6246761;22;20020;-80
2024/01/24 13:11:35;;;;;;;1.73;0.85;;;;;;;;;;6247245;22;20025;-80
2024/01/24 13:14:02;;;;;;;2.72;1.08;;;;;;;;;;6247182;22;20034;-81
2024/01/24 13:16:29;;;;;;;2.20;1.15;;;;;;;;;;6246527;22;20044;-81
2024/01/24 13:18:55;;;;;;;3.88;1.02;;;;;;;;;;6247202;22;20016;-80
2024/01/24 13:21:22;;;;;;;3.13;1.10;;;;;;;;;;6246492;22;20023;-79
2024/01/24 13:23:49;;;;;;;7.40;1.90;;;;;;;;;;6246840;22;20441;-80
2024/01/24 13:26:16;;;;;;;20.33;2.03;;;;;;;;;;6246411;22;20020;-80
2024/01/24 13:28:43;;;;;;;34.70;2.70;;;;;;;;;;6247133;22;20023;-80
2024/01/24 13:31:09;;;;;;;92.25;4.47;;;;;;;;;;6246397;22;20016;-78
2024/01/24 13:33:38;;;;;;;55.17;4.15;;;;;;;;;;6246556;22;20020;-80
2024/01/24 13:36:09;;;;;;;123.90;5.03;;;;;;;;;;6246508;22;20020;-80
2024/01/24 13:38:36;;;;;;;117.82;5.75;;;;;;;;;;6270112;22;20444;-80
2024/01/24 13:41:03;;;;;;;115.20;6.00;;;;;;;;;;6246522;22;20047;-81
2024/01/24 13:43:31;;;;;;;141.13;7.70;;;;;;;;;;6246504;22;20030;-80
2024/01/24 13:45:57;;;;;;;184.15;8.50;;;;;;;;;;6246387;22;20020;-80
2024/01/24 13:48:24;;;;;;;160.95;7.47;;;;;;;;;;6245780;22;20019;-79
2024/01/24 13:50:51;;;;;;;156.07;7.68;;;;;;;;;;6246518;22;20035;-80
2024/01/24 13:53:20;;;;;;;74.65;5.93;;;;;;;;;;6246037;22;20020;-81
2024/01/24 13:55:47;;;;;;;72.50;6.20;;;;;;;;;;6246410;22;20023;-80
2024/01/24 13:58:16;;;;;;;64.55;6.35;;;;;;;;;;6245895;22;20039;-81
2024/01/24 14:00:43;;;;;;;41.95;6.57;;;;;;;;;;6246207;22;20044;-80
2024/01/24 14:03:10;;;;;;;80.95;9.43;;;;;;;;;;6245806;22;20016;-81
2024/01/24 14:05:37;;;;;;;121.03;9.15;;;;;;;;;;6246391;22;20016;-80
2024/01/24 14:08:06;;;;;;;82.65;9.40;;;;;;;;;;6246250;22;20329;-81
2024/01/24 14:10:33;;;;;;;96.78;10.85;;;;;;;;;;6246250;22;20074;-81
2024/01/24 14:13:00;;;;;;;70.15;9.45;;;;;;;;;;6246171;22;20433;-80
2024/01/24 14:15:28;;;;;;;81.68;11.00;;;;;;;;;;6244299;22;20020;-80
2024/01/24 14:18:02;;;;;;;107.85;10.95;;;;;;;;;;6246647;22;20016;-79
2024/01/24 14:20:29;;;;;;;109.78;11.90;;;;;;;;;;6245488;22;20027;-79
2024/01/24 14:22:56;;;;;;;117.03;12.40;;;;;;;;;;6246289;22;20016;-80
2024/01/24 14:25:23;;;;;;;119.95;13.18;;;;;;;;;;6245364;22;20028;-80
2024/01/24 14:27:49;;;;;;;108.47;14.75;;;;;;;;;;6246226;22;20445;-80
2024/01/24 14:30:16;;;;;;;112.93;12.32;;;;;;;;;;6245913;22;20018;-80
2024/01/24 14:32:43;;;;;;;101.97;11.90;;;;;;;;;;6246310;22;20022;-81